sensor_id;sensor_type;location;lat;lon;timestamp;P1;durP1;ratioP1;P2;durP2;ratioP2
75993;SDS011;64680;53.800;9.988;2023-02-01T00:01:43;15.05;;;1.63;;
75993;SDS011;64680;53.800;9.988;2023-02-01T00:04:08;16.10;;;2.25;;
75993;SDS011;64680;53.800;9.988;2023-02-01T00:06:34;15.20;;;2.50;;
75993;SDS011;64680;53.800;9.988;2023-02-01T00:09:00;21.75;;;2.78;;
75993;SDS011;64680;53.800;9.988;2023-02-01T00:11:25;14.52;;;1.83;;
75993;SDS011;64680;53.800;9.988;2023-02-01T00:13:51;22.40;;;2.97;;
75993;SDS011;64680;53.800;9.988;2023-02-01T00:16:23;17.45;;;2.10;;
75993;SDS011;64680;53.800;9.988;2023-02-01T00:18:50;18.52;;;3.00;;
75993;SDS011;64680;53.800;9.988;2023-02-01T00:21:20;16.38;;;1.95;;
75993;SDS011;64680;53.800;9.988;2023-02-01T00:23:46;9.25;;;1.77;;
75993;SDS011;64680;53.800;9.988;2023-02-01T00:26:16;13.27;;;1.67;;
75993;SDS011;64680;53.800;9.988;2023-02-01T00:28:50;18.08;;;2.15;;
75993;SDS011;64680;53.800;9.988;2023-02-01T00:31:16;16.65;;;2.00;;
75993;SDS011;64680;53.800;9.988;2023-02-01T00:33:41;17.35;;;2.25;;
75993;SDS011;64680;53.800;9.988;2023-02-01T00:36:13;18.33;;;3.22;;
75993;SDS011;64680;53.800;9.988;2023-02-01T00:38:39;18.38;;;2.85;;
75993;SDS011;64680;53.800;9.988;2023-02-01T00:41:06;18.85;;;2.50;;
75993;SDS011;64680;53.800;9.988;2023-02-01T00:43:43;19.77;;;2.70;;
75993;SDS011;64680;53.800;9.988;2023-02-01T00:46:09;13.98;;;2.75;;
75993;SDS011;64680;53.800;9.988;2023-02-01T00:48:36;18.67;;;2.70;;
75993;SDS011;64680;53.800;9.988;2023-02-01T00:51:03;17.67;;;2.67;;
75993;SDS011;64680;53.800;9.988;2023-02-01T00:53:30;20.33;;;2.70;;
75993;SDS011;64680;53.800;9.988;2023-02-01T00:55:57;25.42;;;2.92;;
75993;SDS011;64680;53.800;9.988;2023-02-01T00:58:23;18.85;;;3.00;;
75993;SDS011;64680;53.800;9.988;2023-02-01T01:00:59;21.75;;;3.22;;
75993;SDS011;64680;53.800;9.988;2023-02-01T01:03:30;21.33;;;3.08;;
75993;SDS011;64680;53.800;9.988;2023-02-01T01:05:58;20.27;;;2.83;;
75993;SDS011;64680;53.800;9.988;2023-02-01T01:08:25;24.90;;;3.33;;
75993;SDS011;64680;53.800;9.988;2023-02-01T01:10:50;22.52;;;2.90;;
75993;SDS011;64680;53.800;9.988;2023-02-01T01:13:16;28.10;;;3.83;;
75993;SDS011;64680;53.800;9.988;2023-02-01T01:15:42;19.80;;;1.95;;
75993;SDS011;64680;53.800;9.988;2023-02-01T01:18:07;25.75;;;3.53;;
75993;SDS011;64680;53.800;9.988;2023-02-01T01:20:34;25.25;;;2.80;;
75993;SDS011;64680;53.800;9.988;2023-02-01T01:23:01;27.50;;;2.70;;
75993;SDS011;64680;53.800;9.988;2023-02-01T01:25:27;24.02;;;3.60;;
75993;SDS011;64680;53.800;9.988;2023-02-01T01:27:53;19.42;;;2.22;;
75993;SDS011;64680;53.800;9.988;2023-02-01T01:30:18;16.88;;;2.67;;
75993;SDS011;64680;53.800;9.988;2023-02-01T01:32:44;19.63;;;3.13;;
75993;SDS011;64680;53.800;9.988;2023-02-01T01:35:10;25.48;;;3.47;;
75993;SDS011;64680;53.800;9.988;2023-02-01T01:37:36;24.73;;;4.88;;
75993;SDS011;64680;53.800;9.988;2023-02-01T01:40:02;27.25;;;3.55;;
75993;SDS011;64680;53.800;9.988;2023-02-01T01:42:28;23.98;;;2.72;;
75993;SDS011;64680;53.800;9.988;2023-02-01T01:45:02;23.10;;;3.50;;
75993;SDS011;64680;53.800;9.988;2023-02-01T01:47:38;19.52;;;3.03;;
75993;SDS011;64680;53.800;9.988;2023-02-01T01:50:14;30.35;;;4.68;;
75993;SDS011;64680;53.800;9.988;2023-02-01T01:52:45;22.80;;;4.05;;
75993;SDS011;64680;53.800;9.988;2023-02-01T01:55:14;26.15;;;3.15;;
75993;SDS011;64680;53.800;9.988;2023-02-01T01:57:42;21.10;;;3.22;;
75993;SDS011;64680;53.800;9.988;2023-02-01T02:00:12;16.65;;;2.63;;
75993;SDS011;64680;53.800;9.988;2023-02-01T02:02:41;17.92;;;2.97;;
75993;SDS011;64680;53.800;9.988;2023-02-01T02:05:09;28.67;;;3.45;;
75993;SDS011;64680;53.800;9.988;2023-02-01T02:07:36;28.60;;;3.35;;
75993;SDS011;64680;53.800;9.988;2023-02-01T02:10:07;26.60;;;4.45;;
75993;SDS011;64680;53.800;9.988;2023-02-01T02:12:37;22.33;;;3.47;;
75993;SDS011;64680;53.800;9.988;2023-02-01T02:15:04;17.83;;;2.90;;
75993;SDS011;64680;53.800;9.988;2023-02-01T02:42:39;22.08;;;3.00;;
75993;SDS011;64680;53.800;9.988;2023-02-01T02:45:47;21.80;;;3.38;;
75993;SDS011;64680;53.800;9.988;2023-02-01T02:48:59;16.00;;;2.53;;
75993;SDS011;64680;53.800;9.988;2023-02-01T02:51:34;9.57;;;1.73;;
75993;SDS011;64680;53.800;9.988;2023-02-01T02:54:26;19.88;;;2.95;;
75993;SDS011;64680;53.800;9.988;2023-02-01T02:57:13;18.27;;;1.85;;
75993;SDS011;64680;53.800;9.988;2023-02-01T03:00:03;20.55;;;1.98;;
75993;SDS011;64680;53.800;9.988;2023-02-01T03:02:51;13.70;;;2.10;;
75993;SDS011;64680;53.800;9.988;2023-02-01T03:05:37;16.55;;;2.35;;
75993;SDS011;64680;53.800;9.988;2023-02-01T03:08:20;14.82;;;2.58;;
75993;SDS011;64680;53.800;9.988;2023-02-01T03:13:51;18.63;;;2.50;;
75993;SDS011;64680;53.800;9.988;2023-02-01T03:16:22;23.70;;;2.97;;
75993;SDS011;64680;53.800;9.988;2023-02-01T03:18:55;26.35;;;4.07;;
75993;SDS011;64680;53.800;9.988;2023-02-01T03:21:41;21.15;;;2.70;;
75993;SDS011;64680;53.800;9.988;2023-02-01T03:24:16;26.88;;;2.85;;
75993;SDS011;64680;53.800;9.988;2023-02-01T03:26:52;19.63;;;2.72;;
75993;SDS011;64680;53.800;9.988;2023-02-01T03:30:04;30.90;;;3.60;;
75993;SDS011;64680;53.800;9.988;2023-02-01T03:32:12;26.77;;;3.20;;
75993;SDS011;64680;53.800;9.988;2023-02-01T03:34:38;24.92;;;3.67;;
75993;SDS011;64680;53.800;9.988;2023-02-01T03:37:07;15.77;;;2.50;;
75993;SDS011;64680;53.800;9.988;2023-02-01T03:39:49;21.80;;;2.65;;
75993;SDS011;64680;53.800;9.988;2023-02-01T03:42:27;20.95;;;3.15;;
75993;SDS011;64680;53.800;9.988;2023-02-01T03:45:13;24.23;;;3.33;;
75993;SDS011;64680;53.800;9.988;2023-02-01T03:47:45;21.45;;;2.63;;
75993;SDS011;64680;53.800;9.988;2023-02-01T03:55:09;15.82;;;1.33;;
75993;SDS011;64680;53.800;9.988;2023-02-01T03:57:39;7.47;;;1.10;;
75993;SDS011;64680;53.800;9.988;2023-02-01T04:00:14;11.23;;;1.42;;
75993;SDS011;64680;53.800;9.988;2023-02-01T04:02:42;8.48;;;1.08;;
75993;SDS011;64680;53.800;9.988;2023-02-01T04:05:08;10.38;;;1.13;;
75993;SDS011;64680;53.800;9.988;2023-02-01T04:07:33;12.98;;;1.60;;
75993;SDS011;64680;53.800;9.988;2023-02-01T04:09:59;12.48;;;1.92;;
75993;SDS011;64680;53.800;9.988;2023-02-01T04:12:24;8.27;;;1.08;;
75993;SDS011;64680;53.800;9.988;2023-02-01T04:14:50;10.23;;;1.40;;
75993;SDS011;64680;53.800;9.988;2023-02-01T04:17:16;10.70;;;1.67;;
75993;SDS011;64680;53.800;9.988;2023-02-01T04:19:41;8.38;;;1.75;;
75993;SDS011;64680;53.800;9.988;2023-02-01T04:22:07;10.95;;;1.80;;
75993;SDS011;64680;53.800;9.988;2023-02-01T04:24:32;11.68;;;1.42;;
75993;SDS011;64680;53.800;9.988;2023-02-01T04:26:58;12.02;;;1.70;;
75993;SDS011;64680;53.800;9.988;2023-02-01T04:29:23;21.98;;;2.67;;
75993;SDS011;64680;53.800;9.988;2023-02-01T04:31:49;15.43;;;2.90;;
75993;SDS011;64680;53.800;9.988;2023-02-01T04:34:15;14.48;;;2.53;;
75993;SDS011;64680;53.800;9.988;2023-02-01T04:36:40;18.63;;;2.45;;
75993;SDS011;64680;53.800;9.988;2023-02-01T04:39:06;14.75;;;2.28;;
75993;SDS011;64680;53.800;9.988;2023-02-01T04:41:33;18.33;;;2.33;;
75993;SDS011;64680;53.800;9.988;2023-02-01T04:43:59;15.40;;;2.85;;
75993;SDS011;64680;53.800;9.988;2023-02-01T04:46:24;15.10;;;2.05;;
75993;SDS011;64680;53.800;9.988;2023-02-01T04:48:50;24.92;;;2.63;;
75993;SDS011;64680;53.800;9.988;2023-02-01T04:51:16;23.58;;;2.72;;
75993;SDS011;64680;53.800;9.988;2023-02-01T04:53:43;12.57;;;1.73;;
75993;SDS011;64680;53.800;9.988;2023-02-01T04:56:09;15.27;;;2.25;;
75993;SDS011;64680;53.800;9.988;2023-02-01T04:58:34;16.30;;;2.35;;
75993;SDS011;64680;53.800;9.988;2023-02-01T05:01:03;17.83;;;2.10;;
75993;SDS011;64680;53.800;9.988;2023-02-01T05:03:30;10.52;;;1.73;;
75993;SDS011;64680;53.800;9.988;2023-02-01T05:05:57;13.07;;;2.13;;
75993;SDS011;64680;53.800;9.988;2023-02-01T05:08:22;7.82;;;2.13;;
75993;SDS011;64680;53.800;9.988;2023-02-01T05:10:50;10.32;;;1.33;;
75993;SDS011;64680;53.800;9.988;2023-02-01T05:13:15;11.10;;;1.08;;
75993;SDS011;64680;53.800;9.988;2023-02-01T05:16:00;6.28;;;0.70;;
75993;SDS011;64680;53.800;9.988;2023-02-01T05:18:25;4.47;;;0.80;;
75993;SDS011;64680;53.800;9.988;2023-02-01T05:20:51;9.20;;;1.10;;
75993;SDS011;64680;53.800;9.988;2023-02-01T05:23:16;9.82;;;1.95;;
75993;SDS011;64680;53.800;9.988;2023-02-01T05:25:42;8.60;;;1.35;;
75993;SDS011;64680;53.800;9.988;2023-02-01T05:28:07;12.48;;;1.42;;
75993;SDS011;64680;53.800;9.988;2023-02-01T05:30:33;10.93;;;1.10;;
75993;SDS011;64680;53.800;9.988;2023-02-01T05:33:00;13.07;;;1.58;;
75993;SDS011;64680;53.800;9.988;2023-02-01T05:35:25;11.07;;;1.20;;
75993;SDS011;64680;53.800;9.988;2023-02-01T05:37:51;6.88;;;1.25;;
75993;SDS011;64680;53.800;9.988;2023-02-01T05:40:17;10.88;;;1.88;;
75993;SDS011;64680;53.800;9.988;2023-02-01T05:42:42;4.65;;;0.80;;
75993;SDS011;64680;53.800;9.988;2023-02-01T05:45:08;4.88;;;0.88;;
75993;SDS011;64680;53.800;9.988;2023-02-01T05:47:34;4.97;;;0.50;;
75993;SDS011;64680;53.800;9.988;2023-02-01T05:49:59;5.18;;;0.65;;
75993;SDS011;64680;53.800;9.988;2023-02-01T05:52:25;6.18;;;1.48;;
75993;SDS011;64680;53.800;9.988;2023-02-01T05:54:50;6.75;;;1.40;;
75993;SDS011;64680;53.800;9.988;2023-02-01T05:57:17;4.22;;;0.93;;
75993;SDS011;64680;53.800;9.988;2023-02-01T05:59:43;2.83;;;0.50;;
75993;SDS011;64680;53.800;9.988;2023-02-01T06:02:12;7.35;;;0.90;;
75993;SDS011;64680;53.800;9.988;2023-02-01T06:04:38;6.35;;;0.70;;
75993;SDS011;64680;53.800;9.988;2023-02-01T06:07:04;7.88;;;0.70;;
75993;SDS011;64680;53.800;9.988;2023-02-01T06:09:32;6.35;;;1.67;;
75993;SDS011;64680;53.800;9.988;2023-02-01T06:11:58;6.32;;;0.82;;
75993;SDS011;64680;53.800;9.988;2023-02-01T06:14:26;5.15;;;1.05;;
75993;SDS011;64680;53.800;9.988;2023-02-01T06:16:52;3.78;;;0.63;;
75993;SDS011;64680;53.800;9.988;2023-02-01T06:19:19;6.95;;;0.77;;
75993;SDS011;64680;53.800;9.988;2023-02-01T06:21:45;4.40;;;1.30;;
75993;SDS011;64680;53.800;9.988;2023-02-01T06:24:10;6.82;;;0.88;;
75993;SDS011;64680;53.800;9.988;2023-02-01T06:26:36;8.77;;;1.15;;
75993;SDS011;64680;53.800;9.988;2023-02-01T06:29:02;9.77;;;1.10;;
75993;SDS011;64680;53.800;9.988;2023-02-01T06:31:27;6.93;;;1.15;;
75993;SDS011;64680;53.800;9.988;2023-02-01T06:33:53;8.23;;;1.42;;
75993;SDS011;64680;53.800;9.988;2023-02-01T06:36:19;7.55;;;1.17;;
75993;SDS011;64680;53.800;9.988;2023-02-01T06:38:46;10.70;;;1.00;;
75993;SDS011;64680;53.800;9.988;2023-02-01T06:41:12;6.30;;;1.58;;
75993;SDS011;64680;53.800;9.988;2023-02-01T06:43:38;8.10;;;1.10;;
75993;SDS011;64680;53.800;9.988;2023-02-01T06:46:05;5.63;;;1.15;;
75993;SDS011;64680;53.800;9.988;2023-02-01T06:48:33;7.78;;;1.15;;
75993;SDS011;64680;53.800;9.988;2023-02-01T06:50:59;10.70;;;1.88;;
75993;SDS011;64680;53.800;9.988;2023-02-01T06:53:25;6.18;;;1.30;;
75993;SDS011;64680;53.800;9.988;2023-02-01T06:55:51;10.32;;;1.70;;
75993;SDS011;64680;53.800;9.988;2023-02-01T06:58:21;9.88;;;1.52;;
75993;SDS011;64680;53.800;9.988;2023-02-01T07:00:47;15.70;;;2.33;;
75993;SDS011;64680;53.800;9.988;2023-02-01T07:03:13;14.20;;;1.60;;
75993;SDS011;64680;53.800;9.988;2023-02-01T07:05:39;9.93;;;2.40;;
75993;SDS011;64680;53.800;9.988;2023-02-01T07:08:04;18.00;;;2.35;;
75993;SDS011;64680;53.800;9.988;2023-02-01T07:10:30;13.70;;;2.72;;
75993;SDS011;64680;53.800;9.988;2023-02-01T07:12:56;16.75;;;2.08;;
75993;SDS011;64680;53.800;9.988;2023-02-01T07:15:22;20.35;;;3.10;;
75993;SDS011;64680;53.800;9.988;2023-02-01T07:17:48;14.88;;;2.92;;
75993;SDS011;64680;53.800;9.988;2023-02-01T07:20:14;18.58;;;2.85;;
75993;SDS011;64680;53.800;9.988;2023-02-01T07:22:40;21.65;;;3.10;;
75993;SDS011;64680;53.800;9.988;2023-02-01T07:25:06;16.80;;;2.78;;
75993;SDS011;64680;53.800;9.988;2023-02-01T07:27:35;17.48;;;2.88;;
75993;SDS011;64680;53.800;9.988;2023-02-01T07:30:01;25.23;;;3.38;;
75993;SDS011;64680;53.800;9.988;2023-02-01T07:32:28;21.05;;;2.40;;
75993;SDS011;64680;53.800;9.988;2023-02-01T07:34:54;21.48;;;3.72;;
75993;SDS011;64680;53.800;9.988;2023-02-01T07:37:20;27.58;;;4.03;;
75993;SDS011;64680;53.800;9.988;2023-02-01T07:39:45;25.88;;;3.28;;
75993;SDS011;64680;53.800;9.988;2023-02-01T07:42:11;14.00;;;2.58;;
75993;SDS011;64680;53.800;9.988;2023-02-01T07:44:37;24.10;;;4.03;;
75993;SDS011;64680;53.800;9.988;2023-02-01T07:47:02;16.77;;;3.05;;
75993;SDS011;64680;53.800;9.988;2023-02-01T07:49:28;15.50;;;3.10;;
75993;SDS011;64680;53.800;9.988;2023-02-01T07:51:53;20.88;;;2.67;;
75993;SDS011;64680;53.800;9.988;2023-02-01T07:54:19;24.95;;;2.75;;
75993;SDS011;64680;53.800;9.988;2023-02-01T07:56:45;18.25;;;2.17;;
75993;SDS011;64680;53.800;9.988;2023-02-01T07:59:10;24.25;;;4.10;;
75993;SDS011;64680;53.800;9.988;2023-02-01T08:01:36;18.90;;;2.83;;
75993;SDS011;64680;53.800;9.988;2023-02-01T08:04:02;26.20;;;3.50;;
75993;SDS011;64680;53.800;9.988;2023-02-01T08:06:30;22.10;;;3.78;;
75993;SDS011;64680;53.800;9.988;2023-02-01T08:08:56;22.77;;;2.75;;
75993;SDS011;64680;53.800;9.988;2023-02-01T08:11:23;20.98;;;2.90;;
75993;SDS011;64680;53.800;9.988;2023-02-01T08:13:49;25.23;;;3.00;;
75993;SDS011;64680;53.800;9.988;2023-02-01T08:16:16;16.65;;;2.00;;
75993;SDS011;64680;53.800;9.988;2023-02-01T08:18:43;23.15;;;2.22;;
75993;SDS011;64680;53.800;9.988;2023-02-01T08:21:10;15.75;;;2.10;;
75993;SDS011;64680;53.800;9.988;2023-02-01T08:23:37;19.98;;;2.85;;
75993;SDS011;64680;53.800;9.988;2023-02-01T08:26:07;20.42;;;2.45;;
75993;SDS011;64680;53.800;9.988;2023-02-01T08:28:37;20.67;;;3.03;;
75993;SDS011;64680;53.800;9.988;2023-02-01T08:31:04;19.92;;;2.38;;
75993;SDS011;64680;53.800;9.988;2023-02-01T08:33:32;20.25;;;2.38;;
75993;SDS011;64680;53.800;9.988;2023-02-01T08:35:59;22.75;;;3.15;;
75993;SDS011;64680;53.800;9.988;2023-02-01T08:38:26;16.98;;;2.38;;
75993;SDS011;64680;53.800;9.988;2023-02-01T08:40:51;11.88;;;1.20;;
75993;SDS011;64680;53.800;9.988;2023-02-01T08:43:18;8.15;;;1.67;;
75993;SDS011;64680;53.800;9.988;2023-02-01T08:45:43;7.07;;;1.00;;
75993;SDS011;64680;53.800;9.988;2023-02-01T08:48:09;5.20;;;0.80;;
75993;SDS011;64680;53.800;9.988;2023-02-01T08:50:34;6.45;;;1.15;;
75993;SDS011;64680;53.800;9.988;2023-02-01T08:53:00;9.00;;;0.93;;
75993;SDS011;64680;53.800;9.988;2023-02-01T08:55:26;8.73;;;0.77;;
75993;SDS011;64680;53.800;9.988;2023-02-01T08:57:52;10.55;;;2.00;;
75993;SDS011;64680;53.800;9.988;2023-02-01T09:00:18;10.10;;;1.20;;
75993;SDS011;64680;53.800;9.988;2023-02-01T09:02:43;6.38;;;0.98;;
75993;SDS011;64680;53.800;9.988;2023-02-01T09:05:12;7.75;;;1.00;;
75993;SDS011;64680;53.800;9.988;2023-02-01T09:07:39;10.60;;;1.23;;
75993;SDS011;64680;53.800;9.988;2023-02-01T09:10:05;11.30;;;1.58;;
75993;SDS011;64680;53.800;9.988;2023-02-01T09:12:31;8.88;;;1.45;;
75993;SDS011;64680;53.800;9.988;2023-02-01T09:14:58;10.52;;;1.63;;
75993;SDS011;64680;53.800;9.988;2023-02-01T09:17:28;12.82;;;1.35;;
75993;SDS011;64680;53.800;9.988;2023-02-01T09:19:54;13.80;;;1.50;;
75993;SDS011;64680;53.800;9.988;2023-02-01T09:22:20;9.70;;;1.77;;
75993;SDS011;64680;53.800;9.988;2023-02-01T09:24:45;12.73;;;1.83;;
75993;SDS011;64680;53.800;9.988;2023-02-01T09:27:11;13.50;;;3.13;;
75993;SDS011;64680;53.800;9.988;2023-02-01T09:29:36;14.45;;;2.95;;
75993;SDS011;64680;53.800;9.988;2023-02-01T09:32:02;16.35;;;2.60;;
75993;SDS011;64680;53.800;9.988;2023-02-01T09:34:28;16.88;;;2.67;;
75993;SDS011;64680;53.800;9.988;2023-02-01T09:36:54;20.05;;;3.45;;
75993;SDS011;64680;53.800;9.988;2023-02-01T09:39:20;21.00;;;2.55;;
75993;SDS011;64680;53.800;9.988;2023-02-01T09:42:07;21.58;;;2.72;;
75993;SDS011;64680;53.800;9.988;2023-02-01T09:45:01;23.10;;;3.05;;
75993;SDS011;64680;53.800;9.988;2023-02-01T09:47:46;17.95;;;2.40;;
75993;SDS011;64680;53.800;9.988;2023-02-01T09:50:17;20.75;;;3.03;;
75993;SDS011;64680;53.800;9.988;2023-02-01T09:52:52;25.02;;;2.97;;
75993;SDS011;64680;53.800;9.988;2023-02-01T09:57:56;24.48;;;3.28;;
75993;SDS011;64680;53.800;9.988;2023-02-01T10:00:27;24.38;;;2.30;;
75993;SDS011;64680;53.800;9.988;2023-02-01T10:02:58;26.38;;;2.95;;
75993;SDS011;64680;53.800;9.988;2023-02-01T10:05:47;16.17;;;2.22;;
75993;SDS011;64680;53.800;9.988;2023-02-01T10:16:43;14.55;;;2.88;;
75993;SDS011;64680;53.800;9.988;2023-02-01T10:27:51;19.15;;;2.72;;
75993;SDS011;64680;53.800;9.988;2023-02-01T10:30:18;15.55;;;2.10;;
75993;SDS011;64680;53.800;9.988;2023-02-01T10:32:49;16.88;;;2.35;;
75993;SDS011;64680;53.800;9.988;2023-02-01T10:35:27;22.23;;;2.90;;
75993;SDS011;64680;53.800;9.988;2023-02-01T10:40:25;21.67;;;2.65;;
75993;SDS011;64680;53.800;9.988;2023-02-01T10:42:58;17.80;;;1.98;;
75993;SDS011;64680;53.800;9.988;2023-02-01T10:45:27;12.90;;;2.10;;
75993;SDS011;64680;53.800;9.988;2023-02-01T10:47:59;24.77;;;2.42;;
75993;SDS011;64680;53.800;9.988;2023-02-01T10:53:17;11.45;;;2.17;;
75993;SDS011;64680;53.800;9.988;2023-02-01T10:55:50;18.08;;;2.38;;
75993;SDS011;64680;53.800;9.988;2023-02-01T10:58:27;17.75;;;2.45;;
75993;SDS011;64680;53.800;9.988;2023-02-01T11:00:54;21.15;;;3.03;;
75993;SDS011;64680;53.800;9.988;2023-02-01T11:03:41;15.68;;;2.75;;
75993;SDS011;64680;53.800;9.988;2023-02-01T11:08:56;21.00;;;2.20;;
75993;SDS011;64680;53.800;9.988;2023-02-01T11:11:23;17.38;;;1.95;;
75993;SDS011;64680;53.800;9.988;2023-02-01T11:13:53;18.90;;;2.88;;
75993;SDS011;64680;53.800;9.988;2023-02-01T11:16:34;17.85;;;2.53;;
75993;SDS011;64680;53.800;9.988;2023-02-01T11:19:03;15.20;;;2.13;;
75993;SDS011;64680;53.800;9.988;2023-02-01T11:21:29;17.88;;;1.90;;
75993;SDS011;64680;53.800;9.988;2023-02-01T11:23:55;15.00;;;1.98;;
75993;SDS011;64680;53.800;9.988;2023-02-01T11:26:27;18.10;;;2.33;;
75993;SDS011;64680;53.800;9.988;2023-02-01T11:28:55;20.25;;;2.83;;
75993;SDS011;64680;53.800;9.988;2023-02-01T11:31:24;19.52;;;2.28;;
75993;SDS011;64680;53.800;9.988;2023-02-01T11:33:53;19.85;;;2.95;;
75993;SDS011;64680;53.800;9.988;2023-02-01T11:36:26;25.23;;;2.25;;
75993;SDS011;64680;53.800;9.988;2023-02-01T11:39:39;18.30;;;2.90;;
75993;SDS011;64680;53.800;9.988;2023-02-01T11:44:33;18.27;;;2.97;;
75993;SDS011;64680;53.800;9.988;2023-02-01T11:49:50;16.58;;;2.08;;
75993;SDS011;64680;53.800;9.988;2023-02-01T11:57:26;18.27;;;2.10;;
75993;SDS011;64680;53.800;9.988;2023-02-01T12:18:51;14.38;;;2.05;;
75993;SDS011;64680;53.800;9.988;2023-02-01T12:27:17;8.77;;;1.23;;
75993;SDS011;64680;53.800;9.988;2023-02-01T12:35:27;4.90;;;0.55;;
75993;SDS011;64680;53.800;9.988;2023-02-01T12:46:33;5.72;;;0.65;;
75993;SDS011;64680;53.800;9.988;2023-02-01T12:49:13;4.85;;;0.50;;
75993;SDS011;64680;53.800;9.988;2023-02-01T12:51:43;4.50;;;0.90;;
75993;SDS011;64680;53.800;9.988;2023-02-01T12:54:19;4.07;;;0.63;;
75993;SDS011;64680;53.800;9.988;2023-02-01T12:56:47;4.65;;;0.70;;
75993;SDS011;64680;53.800;9.988;2023-02-01T12:59:19;6.53;;;0.90;;
75993;SDS011;64680;53.800;9.988;2023-02-01T13:01:52;7.55;;;0.90;;
75993;SDS011;64680;53.800;9.988;2023-02-01T13:07:01;5.80;;;0.68;;
75993;SDS011;64680;53.800;9.988;2023-02-01T13:10:22;5.70;;;0.75;;
75993;SDS011;64680;53.800;9.988;2023-02-01T13:15:32;5.68;;;0.50;;
75993;SDS011;64680;53.800;9.988;2023-02-01T13:18:03;5.40;;;0.90;;
75993;SDS011;64680;53.800;9.988;2023-02-01T13:20:51;6.47;;;0.73;;
75993;SDS011;64680;53.800;9.988;2023-02-01T13:25:53;7.03;;;0.63;;
75993;SDS011;64680;53.800;9.988;2023-02-01T13:31:17;5.57;;;0.68;;
75993;SDS011;64680;53.800;9.988;2023-02-01T13:39:05;3.85;;;1.35;;
75993;SDS011;64680;53.800;9.988;2023-02-01T13:44:43;5.13;;;0.73;;
75993;SDS011;64680;53.800;9.988;2023-02-01T13:47:26;4.15;;;0.82;;
75993;SDS011;64680;53.800;9.988;2023-02-01T13:49:56;4.90;;;1.00;;
75993;SDS011;64680;53.800;9.988;2023-02-01T13:55:31;5.15;;;0.50;;
75993;SDS011;64680;53.800;9.988;2023-02-01T13:58:02;4.38;;;0.90;;
75993;SDS011;64680;53.800;9.988;2023-02-01T14:00:31;5.88;;;1.23;;
75993;SDS011;64680;53.800;9.988;2023-02-01T14:18:54;7.60;;;0.73;;
75993;SDS011;64680;53.800;9.988;2023-02-01T14:21:31;7.18;;;1.20;;
75993;SDS011;64680;53.800;9.988;2023-02-01T14:26:50;4.88;;;0.85;;
75993;SDS011;64680;53.800;9.988;2023-02-01T14:32:16;7.15;;;0.77;;
75993;SDS011;64680;53.800;9.988;2023-02-01T14:44:38;6.97;;;1.38;;
75993;SDS011;64680;53.800;9.988;2023-02-01T14:56:08;10.15;;;2.13;;
75993;SDS011;64680;53.800;9.988;2023-02-01T14:58:12;14.55;;;3.03;;
75993;SDS011;64680;53.800;9.988;2023-02-01T15:00:50;10.32;;;1.73;;
75993;SDS011;64680;53.800;9.988;2023-02-01T15:05:57;6.93;;;1.17;;
75993;SDS011;64680;53.800;9.988;2023-02-01T15:08:29;12.48;;;2.90;;
75993;SDS011;64680;53.800;9.988;2023-02-01T15:10:58;11.32;;;1.23;;
75993;SDS011;64680;53.800;9.988;2023-02-01T15:13:28;11.48;;;2.15;;
75993;SDS011;64680;53.800;9.988;2023-02-01T15:16:13;11.85;;;1.70;;
75993;SDS011;64680;53.800;9.988;2023-02-01T15:18:40;9.75;;;1.35;;
75993;SDS011;64680;53.800;9.988;2023-02-01T15:21:13;13.32;;;1.85;;
75993;SDS011;64680;53.800;9.988;2023-02-01T15:23:50;14.05;;;1.52;;
75993;SDS011;64680;53.800;9.988;2023-02-01T15:26:34;9.55;;;1.25;;
75993;SDS011;64680;53.800;9.988;2023-02-01T15:29:00;8.73;;;1.35;;
75993;SDS011;64680;53.800;9.988;2023-02-01T15:31:59;12.52;;;1.27;;
75993;SDS011;64680;53.800;9.988;2023-02-01T15:34:18;11.27;;;1.50;;
75993;SDS011;64680;53.800;9.988;2023-02-01T15:36:45;12.38;;;1.52;;
75993;SDS011;64680;53.800;9.988;2023-02-01T15:39:12;14.00;;;2.05;;
75993;SDS011;64680;53.800;9.988;2023-02-01T15:41:59;9.57;;;1.77;;
75993;SDS011;64680;53.800;9.988;2023-02-01T15:44:39;16.67;;;2.72;;
75993;SDS011;64680;53.800;9.988;2023-02-01T15:47:16;14.55;;;3.05;;
75993;SDS011;64680;53.800;9.988;2023-02-01T15:49:43;14.70;;;3.17;;
75993;SDS011;64680;53.800;9.988;2023-02-01T15:52:16;19.77;;;3.95;;
75993;SDS011;64680;53.800;9.988;2023-02-01T15:54:49;15.70;;;2.78;;
75993;SDS011;64680;53.800;9.988;2023-02-01T15:57:20;12.45;;;2.10;;
75993;SDS011;64680;53.800;9.988;2023-02-01T15:59:57;15.40;;;2.30;;
75993;SDS011;64680;53.800;9.988;2023-02-01T16:04:53;16.92;;;2.08;;
75993;SDS011;64680;53.800;9.988;2023-02-01T16:07:26;19.67;;;3.17;;
75993;SDS011;64680;53.800;9.988;2023-02-01T16:09:54;21.13;;;2.47;;
75993;SDS011;64680;53.800;9.988;2023-02-01T16:17:22;17.60;;;2.78;;
75993;SDS011;64680;53.800;9.988;2023-02-01T16:19:47;18.73;;;2.20;;
75993;SDS011;64680;53.800;9.988;2023-02-01T16:22:13;20.55;;;2.72;;
75993;SDS011;64680;53.800;9.988;2023-02-01T16:24:39;17.33;;;2.15;;
75993;SDS011;64680;53.800;9.988;2023-02-01T16:27:04;27.00;;;3.17;;
75993;SDS011;64680;53.800;9.988;2023-02-01T16:29:32;13.02;;;2.90;;
75993;SDS011;64680;53.800;9.988;2023-02-01T16:31:58;18.33;;;2.20;;
75993;SDS011;64680;53.800;9.988;2023-02-01T16:34:24;31.98;;;3.00;;
75993;SDS011;64680;53.800;9.988;2023-02-01T16:36:51;26.83;;;3.28;;
75993;SDS011;64680;53.800;9.988;2023-02-01T16:39:17;20.45;;;1.88;;
75993;SDS011;64680;53.800;9.988;2023-02-01T16:41:44;16.52;;;1.98;;
75993;SDS011;64680;53.800;9.988;2023-02-01T16:44:10;20.60;;;3.33;;
75993;SDS011;64680;53.800;9.988;2023-02-01T16:46:39;16.90;;;2.58;;
75993;SDS011;64680;53.800;9.988;2023-02-01T16:49:08;24.15;;;2.80;;
75993;SDS011;64680;53.800;9.988;2023-02-01T16:51:49;23.88;;;3.10;;
75993;SDS011;64680;53.800;9.988;2023-02-01T16:54:18;24.27;;;3.00;;
75993;SDS011;64680;53.800;9.988;2023-02-01T16:56:44;28.67;;;2.92;;
75993;SDS011;64680;53.800;9.988;2023-02-01T16:59:11;22.17;;;3.28;;
75993;SDS011;64680;53.800;9.988;2023-02-01T17:01:37;21.83;;;2.90;;
75993;SDS011;64680;53.800;9.988;2023-02-01T17:04:03;20.20;;;3.00;;
75993;SDS011;64680;53.800;9.988;2023-02-01T17:06:29;22.17;;;3.03;;
75993;SDS011;64680;53.800;9.988;2023-02-01T17:08:58;19.67;;;3.30;;
75993;SDS011;64680;53.800;9.988;2023-02-01T17:11:24;17.30;;;2.45;;
75993;SDS011;64680;53.800;9.988;2023-02-01T17:13:52;25.75;;;3.10;;
75993;SDS011;64680;53.800;9.988;2023-02-01T17:18:43;21.75;;;2.95;;
75993;SDS011;64680;53.800;9.988;2023-02-01T17:21:12;17.58;;;2.83;;
75993;SDS011;64680;53.800;9.988;2023-02-01T17:23:38;27.98;;;3.38;;
75993;SDS011;64680;53.800;9.988;2023-02-01T17:26:04;19.92;;;2.30;;
75993;SDS011;64680;53.800;9.988;2023-02-01T17:28:29;20.80;;;3.33;;
75993;SDS011;64680;53.800;9.988;2023-02-01T17:30:55;18.70;;;2.72;;
75993;SDS011;64680;53.800;9.988;2023-02-01T17:33:23;24.67;;;2.97;;
75993;SDS011;64680;53.800;9.988;2023-02-01T17:35:54;20.73;;;2.70;;
75993;SDS011;64680;53.800;9.988;2023-02-01T17:38:20;14.57;;;2.03;;
75993;SDS011;64680;53.800;9.988;2023-02-01T17:40:47;20.35;;;2.70;;
75993;SDS011;64680;53.800;9.988;2023-02-01T17:43:14;21.75;;;3.22;;
75993;SDS011;64680;53.800;9.988;2023-02-01T17:46:15;23.83;;;3.05;;
75993;SDS011;64680;53.800;9.988;2023-02-01T17:48:37;17.85;;;2.13;;
75993;SDS011;64680;53.800;9.988;2023-02-01T17:51:03;17.70;;;2.42;;
75993;SDS011;64680;53.800;9.988;2023-02-01T17:53:30;23.55;;;3.05;;
75993;SDS011;64680;53.800;9.988;2023-02-01T17:55:58;26.27;;;3.50;;
75993;SDS011;64680;53.800;9.988;2023-02-01T17:58:24;23.17;;;2.55;;